Startpagina
METAR-TAF:

METAR-TAF

Vliegvelden :

Koror, Babelthuap Island, Palau

Roman Tmetuchl International Airport

breedte: 07-22N, lengte: 134-32E, hoogte: 54 m

Actueel weer

Dit bericht is 20 minuten geleden gemaakt, om 23:50 UTC
Weinig wind
Temperatuur 28°C
Vochtigheid 84%
Druk 1010 hPa
Zicht: 24.1 km
Verspreide wolken op 1600 ft, Stapelwolken.
Gebroken wolken op 12000 ft
Gebroken wolken op 30000 ft

METAR: PTRO 272350Z 00000KT 15SM SCT016TCU BKN120 BKN300 28/25 A2983 RMK TCU VC E AND W

Tijdstip: 09:10 (00:10 UTC)

Verwachting

Dit bericht is 44 minuten geleden gemaakt, om 23:26 UTC
Verwachting geldig van 28 om 00 UTC tot 28 om 24 UTC
Wind 7 kt uit het oostnoordoosten
Zicht: 10 km
Verspreide wolken op 1600 ft
Verspreide wolken op 3000 ft
Gebroken wolken op 12000 ft
buien in de omgeving

TAF: PTRO 272326Z 2800/2824 07007KT P6SM VCSH SCT016 SCT030 BKN120

Waarnemingen en weersverwachtingen van meer dan 4000 vliegvelden (METAR en TAF).

De beschikbare stations zijn de gele en rode punten op de kaart.

Ga met uw muis naar het station om de naam te zien.

Klik dan om waarnemingen en weersverwachtingen te zien.

kaart wijzigen: klik op de groene knoppen met een zwart kruis om in te zoomen, op de groene knop met een streepje om uit te zoomen of op de groene pijlen voor aangrenzende kaarten.


METAR-TAF: